Time;durP1;ratioP1;P1;durP2;ratioP2;P2;SDS_P1;SDS_P2;PMS_P1;PMS_P2;Temp;Humidity;BMP_temperature;BMP_pressure;BME280_temperature;BME280_humidity;BME280_pressure;Samples;Min_cycle;Max_cycle;Signal;HPM_P1;HPM_P2
2022/04/27 00:00:17;;;;;;;0.55;0.55;;;7.40;99.90;;;;;;5030090;28;20041;-76
2022/04/27 00:02:44;;;;;;;0.60;0.60;;;7.50;99.90;;;;;;5034006;28;20041;-78
2022/04/27 00:05:10;;;;;;;0.30;0.30;;;7.50;99.90;;;;;;5017280;28;20048;-75
2022/04/27 00:07:36;;;;;;;0.38;0.38;;;7.50;99.90;;;;;;5042879;28;20730;-75
2022/04/27 00:10:02;;;;;;;0.60;0.60;;;7.50;99.90;;;;;;5046145;28;20145;-74
2022/04/27 00:12:28;;;;;;;0.40;0.40;;;7.50;99.90;;;;;;5020280;28;20153;-73
2022/04/27 00:14:54;;;;;;;0.40;0.40;;;7.50;99.90;;;;;;5015990;28;20081;-75
2022/04/27 00:17:20;;;;;;;0.88;0.85;;;7.50;99.90;;;;;;5031611;28;20048;-76
2022/04/27 00:19:45;;;;;;;0.88;0.55;;;7.60;99.90;;;;;;5033809;28;20060;-75
2022/04/27 00:22:13;;;;;;;0.50;0.50;;;7.60;99.90;;;;;;5021017;28;20116;-74
2022/04/27 00:24:39;;;;;;;0.52;0.52;;;7.60;99.90;;;;;;5050321;28;20100;-75
2022/04/27 00:27:05;;;;;;;0.52;0.52;;;7.60;99.90;;;;;;5032944;28;20191;-74
2022/04/27 00:29:31;;;;;;;;;;;7.70;99.90;;;;;;5051134;28;20143;-77
2022/04/27 00:31:57;;;;;;;0.47;0.47;;;7.80;99.90;;;;;;5025140;28;19943;-76
2022/04/27 00:34:23;;;;;;;0.60;0.60;;;7.80;99.90;;;;;;5049424;28;20041;-76
2022/04/27 00:36:48;;;;;;;0.57;0.57;;;7.70;99.90;;;;;;5017840;28;20041;-76
2022/04/27 00:39:14;;;;;;;0.50;0.50;;;7.80;99.90;;;;;;5042481;28;20067;-75
2022/04/27 00:41:58;;;;;;;0.50;0.50;;;7.80;99.90;;;;;;5036961;28;20037;-75
2022/04/27 00:44:30;;;;;;;0.40;0.40;;;7.80;99.90;;;;;;5037559;28;20124;-76
2022/04/27 00:46:56;;;;;;;0.20;0.20;;;7.80;99.90;;;;;;5027424;28;20056;-77
2022/04/27 00:49:22;;;;;;;0.57;0.57;;;7.80;99.90;;;;;;5017000;28;20128;-75
2022/04/27 00:51:48;;;;;;;0.50;0.50;;;7.80;99.90;;;;;;5017593;28;20119;-76
2022/04/27 00:54:15;;;;;;;0.40;0.40;;;7.80;99.90;;;;;;5029903;28;20037;-77
2022/04/27 00:56:43;;;;;;;0.75;0.65;;;7.80;99.90;;;;;;5048752;28;20099;-78
2022/04/27 00:59:09;;;;;;;0.50;0.50;;;7.80;99.90;;;;;;5026717;28;20041;-75
2022/04/27 01:01:35;;;;;;;0.50;0.50;;;7.80;99.90;;;;;;5050831;28;20047;-75
2022/04/27 01:04:01;;;;;;;0.82;0.82;;;7.80;99.90;;;;;;5016632;28;20470;-74
2022/04/27 01:06:27;;;;;;;;;;;7.80;99.90;;;;;;5027282;28;20092;-78
2022/04/27 01:08:53;;;;;;;0.65;0.65;;;7.80;99.90;;;;;;5026590;28;19917;-77
2022/04/27 01:11:19;;;;;;;0.50;0.50;;;7.80;99.90;;;;;;5003826;28;20060;-75
2022/04/27 01:13:45;;;;;;;0.55;0.55;;;7.80;99.90;;;;;;5016625;28;20044;-77
2022/04/27 01:16:11;;;;;;;0.43;0.43;;;7.80;99.90;;;;;;4999518;28;20048;-77
2022/04/27 01:18:37;;;;;;;0.65;0.65;;;7.80;99.90;;;;;;5037374;28;20043;-77
2022/04/27 01:21:03;;;;;;;0.47;0.47;;;7.80;99.90;;;;;;5035200;28;20049;-72
2022/04/27 01:23:29;;;;;;;0.32;0.32;;;7.80;99.90;;;;;;5034897;28;20041;-74
2022/04/27 01:25:57;;;;;;;0.88;0.88;;;7.80;99.90;;;;;;5038151;28;20044;-74
2022/04/27 01:28:24;;;;;;;0.50;0.50;;;7.80;99.90;;;;;;5034933;28;20831;-76
2022/04/27 01:31:00;;;;;;;0.47;0.47;;;7.80;99.90;;;;;;5035751;28;20454;-75
2022/04/27 01:33:26;;;;;;;0.40;0.40;;;7.80;99.90;;;;;;5034191;28;21752;-74
2022/04/27 01:35:52;;;;;;;0.50;0.50;;;7.80;99.90;;;;;;5036868;28;20033;-75
2022/04/27 01:38:18;;;;;;;0.60;0.60;;;7.80;99.90;;;;;;5017887;28;20036;-77
2022/04/27 01:40:47;;;;;;;0.60;0.60;;;7.80;99.90;;;;;;5034923;28;20385;-75
2022/04/27 01:43:16;;;;;;;0.50;0.50;;;7.80;99.90;;;;;;5017929;28;20056;-74
2022/04/27 01:45:45;;;;;;;0.50;0.50;;;7.80;99.90;;;;;;5034369;28;20080;-76
2022/04/27 01:48:12;;;;;;;0.43;0.43;;;7.80;99.90;;;;;;5001995;28;20041;-77
2022/04/27 01:50:38;;;;;;;0.40;0.40;;;7.80;99.90;;;;;;5049938;28;20067;-75
2022/04/27 01:55:50;;;;;;;0.50;0.50;;;7.80;99.90;;;;;;5036353;28;20041;-77
2022/04/27 01:58:16;;;;;;;0.40;0.40;;;7.80;99.90;;;;;;5018117;28;20438;-75
2022/04/27 02:00:42;;;;;;;0.40;0.40;;;7.80;99.90;;;;;;5035346;28;20045;-79
2022/04/27 02:03:08;;;;;;;0.32;0.32;;;7.80;99.90;;;;;;5018306;28;20047;-79
2022/04/27 02:05:34;;;;;;;0.47;0.47;;;7.80;99.90;;;;;;5036211;28;20045;-79
2022/04/27 02:08:01;;;;;;;0.30;0.30;;;7.90;99.90;;;;;;5016072;28;20052;-77
2022/04/27 02:10:30;;;;;;;0.40;0.40;;;7.90;99.90;;;;;;5034344;28;20057;-78
2022/04/27 02:12:56;;;;;;;0.30;0.30;;;7.80;99.90;;;;;;5032952;28;20155;-78
2022/04/27 02:15:21;;;;;;;0.50;0.50;;;7.90;99.90;;;;;;5036103;28;20048;-74
2022/04/27 02:17:50;;;;;;;0.40;0.40;;;7.90;99.90;;;;;;5018149;28;20065;-75
2022/04/27 02:20:18;;;;;;;0.40;0.40;;;7.90;99.90;;;;;;4988671;28;20041;-75
2022/04/27 02:22:44;;;;;;;0.40;0.40;;;7.80;99.90;;;;;;5019337;28;20133;-77
2022/04/27 02:25:10;;;;;;;0.60;0.60;;;7.80;99.90;;;;;;5035794;28;20041;-79
2022/04/27 02:27:36;;;;;;;0.50;0.50;;;7.80;99.90;;;;;;5016307;28;20413;-75
2022/04/27 02:30:03;;;;;;;0.40;0.40;;;7.70;99.90;;;;;;5018024;28;20370;-73
2022/04/27 02:32:29;;;;;;;0.57;0.57;;;7.70;99.90;;;;;;5033720;28;20045;-77
2022/04/27 02:34:54;;;;;;;0.60;0.60;;;7.70;99.90;;;;;;5020346;28;20053;-73
2022/04/27 02:37:20;;;;;;;0.50;0.50;;;7.70;99.90;;;;;;5016482;28;20033;-76
2022/04/27 02:39:46;;;;;;;0.40;0.40;;;7.70;99.90;;;;;;5018824;28;20143;-78
2022/04/27 02:42:12;;;;;;;0.50;0.50;;;7.70;99.90;;;;;;5017397;28;20032;-76
2022/04/27 02:44:39;;;;;;;0.70;0.70;;;7.70;99.90;;;;;;5030831;28;20044;-75
2022/04/27 02:47:04;;;;;;;;;;;7.70;99.90;;;;;;5015847;28;20040;-75
2022/04/27 02:52:14;;;;;;;0.50;0.50;;;7.70;99.90;;;;;;5035206;28;20053;-78
2022/04/27 02:54:40;;;;;;;0.50;0.50;;;7.70;99.90;;;;;;5013938;28;20095;-75
2022/04/27 02:57:06;;;;;;;;;;;7.70;99.90;;;;;;5011615;28;20069;-78
2022/04/27 02:59:33;;;;;;;0.40;0.40;;;7.70;99.90;;;;;;5030928;28;19931;-77
2022/04/27 03:02:00;;;;;;;0.40;0.40;;;7.70;99.90;;;;;;5039994;28;20047;-75
2022/04/27 03:04:25;;;;;;;;;;;7.70;99.90;;;;;;5020328;28;20429;-78
2022/04/27 03:06:51;;;;;;;1.02;0.95;;;7.70;99.90;;;;;;5034597;28;19920;-75
2022/04/27 03:09:17;;;;;;;0.82;0.60;;;7.80;99.90;;;;;;5005722;28;20057;-75
2022/04/27 03:11:43;;;;;;;0.50;0.50;;;7.70;99.90;;;;;;5021568;28;20064;-75
2022/04/27 03:14:09;;;;;;;0.50;0.50;;;7.70;99.90;;;;;;5019700;28;20052;-75
2022/04/27 03:16:35;;;;;;;0.60;0.60;;;7.70;99.90;;;;;;5021897;28;20067;-75
2022/04/27 03:19:01;;;;;;;0.60;0.60;;;7.70;99.90;;;;;;5004412;28;20048;-77
2022/04/27 03:21:29;;;;;;;0.57;0.57;;;7.70;99.90;;;;;;5017141;28;20164;-74
2022/04/27 03:23:56;;;;;;;0.40;0.40;;;7.70;99.90;;;;;;5020394;28;20681;-76
2022/04/27 03:26:21;;;;;;;0.50;0.50;;;7.70;99.90;;;;;;5038131;28;20040;-75
2022/04/27 03:28:47;;;;;;;0.60;0.60;;;7.60;99.90;;;;;;5020195;28;20076;-76
2022/04/27 03:31:13;;;;;;;0.40;0.40;;;7.60;99.90;;;;;;4989157;28;20040;-75
2022/04/27 03:33:39;;;;;;;0.60;0.60;;;7.80;99.90;;;;;;5019874;28;20095;-75
2022/04/27 03:36:08;;;;;;;0.40;0.40;;;7.60;99.90;;;;;;5011064;28;20075;-76
2022/04/27 03:38:34;;;;;;;0.50;0.50;;;7.60;99.90;;;;;;5036388;28;20151;-73
2022/04/27 03:41:00;;;;;;;;;;;7.70;99.90;;;;;;5021759;28;20094;-76
2022/04/27 03:43:26;;;;;;;0.43;0.43;;;7.70;99.90;;;;;;5035731;28;20317;-76
2022/04/27 03:45:51;;;;;;;0.40;0.40;;;7.70;99.90;;;;;;5037454;28;20055;-73
2022/04/27 03:48:17;;;;;;;0.43;0.43;;;7.70;99.90;;;;;;5036776;28;20519;-76
2022/04/27 03:50:43;;;;;;;0.40;0.40;;;7.60;99.90;;;;;;5020202;28;20059;-76
2022/04/27 03:53:09;;;;;;;;;;;7.60;99.90;;;;;;5021927;28;20052;-76
2022/04/27 03:55:35;;;;;;;0.50;0.50;;;7.60;99.90;;;;;;5037526;28;19929;-77
2022/04/27 03:58:04;;;;;;;0.40;0.40;;;7.60;99.90;;;;;;5034507;28;20040;-76
2022/04/27 04:00:30;;;;;;;0.50;0.50;;;7.60;99.90;;;;;;5036008;28;20052;-76
2022/04/27 04:03:00;;;;;;;;;;;7.60;99.90;;;;;;5039974;28;20067;-77
2022/04/27 04:05:26;;;;;;;0.63;0.63;;;7.60;99.90;;;;;;5036143;28;19920;-75
2022/04/27 04:07:52;;;;;;;;;;;7.60;99.90;;;;;;5035817;28;20116;-75
2022/04/27 04:10:17;;;;;;;0.35;0.35;;;7.60;99.90;;;;;;5019515;28;19929;-78
2022/04/27 04:12:47;;;;;;;0.47;0.47;;;7.60;99.90;;;;;;5036404;28;20059;-77
2022/04/27 04:15:13;;;;;;;0.40;0.40;;;7.60;99.90;;;;;;5035833;28;20080;-74
2022/04/27 04:17:45;;;;;;;0.70;0.70;;;7.60;99.90;;;;;;5018775;28;20033;-75
2022/04/27 04:20:20;;;;;;;0.50;0.50;;;7.60;99.90;;;;;;5018609;28;20636;-74
2022/04/27 04:22:47;;;;;;;0.60;0.60;;;7.60;99.90;;;;;;5036288;28;20128;-75
2022/04/27 04:30:42;;;;;;;0.70;0.70;;;7.60;99.90;;;;;;5036306;28;20128;-76
2022/04/27 04:33:08;;;;;;;0.50;0.50;;;7.60;99.90;;;;;;5023005;28;20036;-78
2022/04/27 04:35:35;;;;;;;0.40;0.40;;;7.60;99.90;;;;;;5036445;28;20525;-74
2022/04/27 04:38:01;;;;;;;0.30;0.30;;;7.60;99.90;;;;;;5033018;28;20044;-74
2022/04/27 04:40:26;;;;;;;;;;;7.60;99.90;;;;;;5031441;28;20159;-77
2022/04/27 04:42:52;;;;;;;0.75;0.40;;;7.70;99.90;;;;;;5017088;28;19921;-74
2022/04/27 04:45:18;;;;;;;;;;;7.70;99.90;;;;;;5020642;28;20049;-76
2022/04/27 04:47:44;;;;;;;0.50;0.50;;;7.70;99.90;;;;;;5035366;28;19920;-78
2022/04/27 04:50:11;;;;;;;0.50;0.50;;;7.70;99.90;;;;;;5019174;28;20052;-75
2022/04/27 04:52:38;;;;;;;0.50;0.50;;;7.80;99.90;;;;;;5034910;28;20078;-77
2022/04/27 04:55:04;;;;;;;0.47;0.47;;;7.80;99.90;;;;;;5017637;28;20076;-76
2022/04/27 04:57:30;;;;;;;0.50;0.50;;;7.80;99.90;;;;;;5017933;28;20081;-75
2022/04/27 04:59:56;;;;;;;0.45;0.45;;;7.90;99.90;;;;;;5038191;28;20052;-76
2022/04/27 05:02:22;;;;;;;0.57;0.57;;;7.90;99.90;;;;;;5020311;28;20029;-77
2022/04/27 05:04:48;;;;;;;0.70;0.70;;;7.90;99.90;;;;;;5036913;28;20470;-78
2022/04/27 05:07:13;;;;;;;0.50;0.50;;;7.90;99.90;;;;;;5035074;28;20075;-75
2022/04/27 05:09:39;;;;;;;0.47;0.47;;;7.90;99.90;;;;;;5020249;28;20045;-72
2022/04/27 05:12:05;;;;;;;0.60;0.60;;;7.90;99.90;;;;;;5017789;28;20056;-75
2022/04/27 05:14:34;;;;;;;0.50;0.50;;;7.90;99.90;;;;;;5035160;28;20041;-74
2022/04/27 05:17:00;;;;;;;0.50;0.50;;;8.00;99.90;;;;;;5035436;28;20534;-76
2022/04/27 05:19:25;;;;;;;0.50;0.50;;;8.00;99.90;;;;;;5005289;28;20029;-77
2022/04/27 05:21:51;;;;;;;0.70;0.70;;;8.10;99.90;;;;;;5017391;28;20986;-76
2022/04/27 05:24:17;;;;;;;0.50;0.50;;;8.10;99.90;;;;;;5003346;28;20085;-74
2022/04/27 05:26:43;;;;;;;0.30;0.30;;;8.10;99.90;;;;;;5035336;28;20042;-75
2022/04/27 05:31:54;;;;;;;0.50;0.50;;;8.20;99.90;;;;;;5032461;28;20041;-74
2022/04/27 05:34:24;;;;;;;0.40;0.40;;;8.20;99.90;;;;;;5034878;28;20435;-78
2022/04/27 05:36:50;;;;;;;0.50;0.50;;;8.20;99.90;;;;;;5028178;28;20037;-74
2022/04/27 05:39:18;;;;;;;0.47;0.47;;;8.30;99.90;;;;;;5042722;28;20045;-75
2022/04/27 05:41:44;;;;;;;0.40;0.40;;;8.30;99.90;;;;;;5040902;28;20385;-74
2022/04/27 05:44:12;;;;;;;0.40;0.40;;;8.40;99.90;;;;;;5030540;28;20182;-75
2022/04/27 05:46:38;;;;;;;0.50;0.50;;;8.40;99.90;;;;;;5016024;28;20072;-75
2022/04/27 05:49:04;;;;;;;0.40;0.40;;;8.50;99.90;;;;;;5031455;28;20120;-74
2022/04/27 05:51:30;;;;;;;0.60;0.60;;;8.50;99.90;;;;;;5042742;28;20140;-77
2022/04/27 05:53:56;;;;;;;0.50;0.50;;;8.50;99.90;;;;;;5032300;28;20051;-76
2022/04/27 05:56:23;;;;;;;0.50;0.50;;;8.50;99.90;;;;;;5023375;28;20045;-77
2022/04/27 05:58:49;;;;;;;0.30;0.30;;;8.50;99.90;;;;;;5042972;28;20401;-77
2022/04/27 06:01:15;;;;;;;;;;;8.60;99.90;;;;;;5041873;28;20051;-75
2022/04/27 06:03:40;;;;;;;0.50;0.50;;;8.70;99.90;;;;;;5043496;28;20003;-75
2022/04/27 06:06:06;;;;;;;0.52;0.52;;;8.70;99.90;;;;;;5027248;28;20079;-77
2022/04/27 06:08:32;;;;;;;0.43;0.43;;;8.80;99.90;;;;;;5049287;28;20479;-77
2022/04/27 06:10:58;;;;;;;0.60;0.60;;;8.80;99.90;;;;;;5043722;28;20056;-76
2022/04/27 06:13:27;;;;;;;0.50;0.50;;;8.80;99.90;;;;;;5047146;28;20159;-79
2022/04/27 06:15:52;;;;;;;0.30;0.30;;;8.90;99.90;;;;;;5022720;28;20471;-76
2022/04/27 06:18:18;;;;;;;0.50;0.50;;;8.90;99.90;;;;;;5042033;28;20071;-75
2022/04/27 06:20:44;;;;;;;0.30;0.30;;;8.90;99.90;;;;;;5042652;28;20090;-76
2022/04/27 06:23:10;;;;;;;0.40;0.40;;;8.90;99.90;;;;;;5028052;28;20051;-75
2022/04/27 06:25:39;;;;;;;0.40;0.40;;;8.90;99.90;;;;;;5014501;28;20063;-73
2022/04/27 06:28:05;;;;;;;0.50;0.50;;;9.00;99.90;;;;;;5023459;28;20049;-77
2022/04/27 06:30:32;;;;;;;0.50;0.50;;;9.00;99.90;;;;;;5045893;28;20090;-75
2022/04/27 06:32:58;;;;;;;0.65;0.65;;;9.10;99.90;;;;;;5030738;28;20052;-78
2022/04/27 06:35:24;;;;;;;0.80;0.80;;;9.20;99.90;;;;;;5031904;28;20041;-75
2022/04/27 06:37:50;;;;;;;;;;;9.20;99.90;;;;;;5038458;28;20033;-74
2022/04/27 06:40:15;;;;;;;0.47;0.47;;;9.30;99.90;;;;;;5026928;28;20271;-75
2022/04/27 06:42:42;;;;;;;0.35;0.35;;;9.30;99.90;;;;;;5034472;28;20111;-76
2022/04/27 06:45:09;;;;;;;0.50;0.50;;;9.30;99.90;;;;;;5030737;28;20099;-75
2022/04/27 06:47:34;;;;;;;;;;;9.30;99.90;;;;;;5025938;28;20047;-77
2022/04/27 06:50:00;;;;;;;0.30;0.30;;;9.40;99.90;;;;;;5020709;28;19917;-75
2022/04/27 06:52:26;;;;;;;0.50;0.50;;;9.50;99.90;;;;;;5008056;28;20036;-76
2022/04/27 06:54:52;;;;;;;0.57;0.57;;;9.50;99.90;;;;;;5012791;28;20116;-78
2022/04/27 06:57:17;;;;;;;0.32;0.32;;;9.60;99.90;;;;;;5013858;28;20033;-77
2022/04/27 06:59:43;;;;;;;0.40;0.40;;;9.70;99.90;;;;;;5029727;28;20076;-74
2022/04/27 07:02:12;;;;;;;0.50;0.50;;;9.70;99.90;;;;;;5028245;28;20068;-76
2022/04/27 07:04:40;;;;;;;0.43;0.43;;;9.70;99.90;;;;;;5012875;28;20045;-77
2022/04/27 07:07:06;;;;;;;0.40;0.40;;;9.80;99.90;;;;;;5042675;28;20041;-75
2022/04/27 07:09:32;;;;;;;0.35;0.35;;;9.80;99.90;;;;;;5040624;28;20700;-77
2022/04/27 07:11:58;;;;;;;0.75;0.75;;;9.80;99.90;;;;;;5010362;28;20085;-76
2022/04/27 07:14:24;;;;;;;0.47;0.47;;;9.80;99.90;;;;;;5014542;28;20386;-76
2022/04/27 07:16:50;;;;;;;0.40;0.40;;;9.90;99.90;;;;;;5043940;28;20037;-75
2022/04/27 07:19:15;;;;;;;0.43;0.43;;;9.80;99.90;;;;;;5041740;28;20477;-73
2022/04/27 07:21:41;;;;;;;0.63;0.63;;;9.90;99.90;;;;;;5037988;28;20032;-74
2022/04/27 07:24:07;;;;;;;0.50;0.50;;;9.80;99.90;;;;;;5039213;28;20044;-74
2022/04/27 07:26:34;;;;;;;0.75;0.75;;;9.80;99.90;;;;;;5021574;28;20033;-75
2022/04/27 07:29:01;;;;;;;0.40;0.40;;;9.90;99.90;;;;;;5036999;28;20449;-76
2022/04/27 07:31:27;;;;;;;0.50;0.50;;;10.00;99.90;;;;;;5032522;28;20056;-73
2022/04/27 07:33:53;;;;;;;0.60;0.60;;;10.00;99.90;;;;;;5039343;28;20033;-77
2022/04/27 07:36:19;;;;;;;0.45;0.45;;;9.90;99.90;;;;;;5028534;28;20038;-74
2022/04/27 07:38:45;;;;;;;;;;;10.00;99.90;;;;;;5026097;28;20134;-74
2022/04/27 07:41:11;;;;;;;0.40;0.40;;;10.20;99.90;;;;;;5024594;28;19966;-75
2022/04/27 07:43:37;;;;;;;0.55;0.55;;;10.00;99.90;;;;;;5041886;28;20427;-76
2022/04/27 07:46:05;;;;;;;0.40;0.40;;;10.00;99.90;;;;;;5029435;28;20045;-76
2022/04/27 07:48:32;;;;;;;0.45;0.45;;;10.10;99.90;;;;;;5015580;28;20052;-74
2022/04/27 07:51:02;;;;;;;0.40;0.40;;;10.00;99.90;;;;;;5044072;28;20053;-75
2022/04/27 07:53:29;;;;;;;0.68;0.68;;;10.00;99.90;;;;;;5034820;28;20045;-74
2022/04/27 07:55:54;;;;;;;;;;;10.00;99.90;;;;;;5047766;28;20042;-74
2022/04/27 07:58:20;;;;;;;0.50;0.50;;;10.00;99.90;;;;;;5026226;28;19924;-71
2022/04/27 08:00:46;;;;;;;1.27;1.17;;;10.00;99.90;;;;;;5041103;28;20532;-73
2022/04/27 08:03:12;;;;;;;0.43;0.43;;;10.00;99.90;;;;;;5030977;28;20056;-74
2022/04/27 08:05:38;;;;;;;0.40;0.40;;;9.90;99.90;;;;;;5042009;28;20053;-71
2022/04/27 08:08:06;;;;;;;0.40;0.40;;;9.90;99.90;;;;;;5047740;28;20074;-74
2022/04/27 08:10:31;;;;;;;0.40;0.40;;;9.90;99.90;;;;;;5044227;28;20060;-73
2022/04/27 08:12:58;;;;;;;0.57;0.57;;;9.90;99.90;;;;;;5020019;28;20049;-73
2022/04/27 08:15:25;;;;;;;0.70;0.70;;;10.00;99.90;;;;;;5032554;28;20056;-71
2022/04/27 08:17:59;;;;;;;0.50;0.50;;;10.10;99.90;;;;;;5032278;28;20056;-71
2022/04/27 08:23:20;;;;;;;0.45;0.45;;;10.20;99.90;;;;;;5042228;28;20119;-71
2022/04/27 08:25:47;;;;;;;0.38;0.38;;;10.40;99.90;;;;;;5045932;28;20490;-72
2022/04/27 08:28:13;;;;;;;0.30;0.30;;;10.30;99.90;;;;;;5031146;28;20037;-73
2022/04/27 08:30:42;;;;;;;0.55;0.55;;;10.30;99.90;;;;;;5027134;28;20094;-72
2022/04/27 08:33:08;;;;;;;0.32;0.32;;;10.40;99.90;;;;;;5050403;28;20044;-74
2022/04/27 08:35:34;;;;;;;0.50;0.50;;;10.50;99.90;;;;;;5029986;28;20048;-70
2022/04/27 08:38:01;;;;;;;0.45;0.45;;;10.60;99.90;;;;;;5044032;28;20037;-74
2022/04/27 08:40:28;;;;;;;0.30;0.30;;;10.60;99.90;;;;;;5040462;28;20122;-72
2022/04/27 08:42:54;;;;;;;0.47;0.47;;;10.70;99.90;;;;;;5024535;28;20045;-72
2022/04/27 08:45:21;;;;;;;0.38;0.38;;;10.70;99.90;;;;;;5027685;28;20057;-73
2022/04/27 08:47:49;;;;;;;0.60;0.60;;;10.60;99.90;;;;;;5046487;28;20041;-73
2022/04/27 08:50:20;;;;;;;0.57;0.57;;;10.50;99.90;;;;;;5028002;28;20057;-73
2022/04/27 08:52:47;;;;;;;0.40;0.40;;;10.50;99.90;;;;;;5047181;28;20052;-73
2022/04/27 08:55:13;;;;;;;0.40;0.40;;;10.50;99.90;;;;;;5046215;28;20107;-70
2022/04/27 08:57:39;;;;;;;;;;;10.50;99.90;;;;;;5042723;28;20079;-71
2022/04/27 09:00:07;;;;;;;0.45;0.45;;;10.50;99.90;;;;;;5036124;28;20798;-72
2022/04/27 09:02:33;;;;;;;0.50;0.50;;;10.40;99.90;;;;;;5018270;28;20057;-72
2022/04/27 09:05:09;;;;;;;;;;;10.40;99.90;;;;;;5043128;28;20161;-71
2022/04/27 09:07:57;;;;;;;0.57;0.57;;;10.40;99.90;;;;;;5039798;28;19925;-71
2022/04/27 09:10:24;;;;;;;0.45;0.45;;;10.40;99.90;;;;;;5045053;28;20068;-72
2022/04/27 09:12:57;;;;;;;0.50;0.50;;;10.40;99.90;;;;;;5032821;28;20138;-71
2022/04/27 09:15:25;;;;;;;0.57;0.57;;;10.40;99.90;;;;;;5022853;28;20099;-75
2022/04/27 09:20:54;;;;;;;0.50;0.50;;;10.30;99.90;;;;;;5027551;28;20044;-73
2022/04/27 09:23:28;;;;;;;0.32;0.32;;;10.30;99.90;;;;;;5042274;28;21762;-71
2022/04/27 09:26:13;;;;;;;0.40;0.40;;;10.30;99.90;;;;;;5021423;28;20036;-73
2022/04/27 09:28:38;;;;;;;0.40;0.40;;;10.30;99.90;;;;;;5022900;28;20102;-71
2022/04/27 09:31:04;;;;;;;0.40;0.40;;;10.30;99.90;;;;;;5005073;28;20041;-71
2022/04/27 09:33:38;;;;;;;0.30;0.30;;;10.30;99.90;;;;;;5026668;28;20077;-70
2022/04/27 09:36:23;;;;;;;0.32;0.32;;;10.20;99.90;;;;;;5022713;28;20045;-70
2022/04/27 09:38:53;;;;;;;0.40;0.40;;;10.20;99.90;;;;;;5012754;28;20061;-74
2022/04/27 09:41:39;;;;;;;0.50;0.50;;;10.20;99.90;;;;;;5025503;28;20094;-72
2022/04/27 09:44:04;;;;;;;1.05;1.05;;;10.20;99.90;;;;;;5018528;28;20048;-74
2022/04/27 09:46:30;;;;;;;0.30;0.30;;;9.90;99.90;;;;;;5019847;28;20044;-72
2022/04/27 09:49:02;;;;;;;0.40;0.40;;;10.20;99.90;;;;;;5021483;28;20486;-73
2022/04/27 09:51:28;;;;;;;0.52;0.52;;;10.10;99.90;;;;;;5041523;28;20044;-74
2022/04/27 09:53:54;;;;;;;;;;;10.10;99.90;;;;;;5022607;28;20056;-70
2022/04/27 09:56:22;;;;;;;0.40;0.40;;;10.00;99.90;;;;;;5044511;28;20562;-74
2022/04/27 09:58:48;;;;;;;0.50;0.50;;;10.00;99.90;;;;;;5035631;28;20052;-73
2022/04/27 10:01:16;;;;;;;0.40;0.40;;;10.00;99.90;;;;;;5025562;28;20069;-74
2022/04/27 10:03:47;;;;;;;0.40;0.40;;;10.10;99.90;;;;;;5039472;28;20042;-71
2022/04/27 10:06:14;;;;;;;0.30;0.30;;;10.10;99.90;;;;;;5018162;28;20221;-71
2022/04/27 10:08:40;;;;;;;0.30;0.30;;;10.20;99.90;;;;;;5040438;28;20153;-70
2022/04/27 10:11:09;;;;;;;0.40;0.40;;;10.20;99.90;;;;;;5027931;28;20159;-74
2022/04/27 10:13:36;;;;;;;0.30;0.30;;;10.20;99.90;;;;;;5027566;28;20045;-72
2022/04/27 10:16:03;;;;;;;0.30;0.30;;;10.20;99.90;;;;;;5034173;28;20682;-72
2022/04/27 10:18:30;;;;;;;0.35;0.35;;;10.20;99.90;;;;;;5032256;28;20055;-71
2022/04/27 10:20:56;;;;;;;0.40;0.40;;;10.20;99.90;;;;;;5026866;28;20033;-70
2022/04/27 10:23:28;;;;;;;0.30;0.30;;;10.20;99.90;;;;;;5037065;28;20478;-72
2022/04/27 10:26:12;;;;;;;0.30;0.30;;;10.20;99.90;;;;;;5019614;28;20382;-71
2022/04/27 10:28:46;;;;;;;0.55;0.55;;;10.30;99.90;;;;;;5026971;28;20457;-72
2022/04/27 10:31:12;;;;;;;0.80;0.80;;;10.30;99.90;;;;;;5026495;28;20123;-72
2022/04/27 10:33:49;;;;;;;0.47;0.47;;;10.30;99.90;;;;;;5029705;28;20168;-72
2022/04/27 10:36:21;;;;;;;0.45;0.45;;;10.30;99.90;;;;;;5027705;28;20460;-71
2022/04/27 10:39:11;;;;;;;6.50;2.00;;;10.40;99.90;;;;;;5038210;28;20489;-71
2022/04/27 10:41:48;;;;;;;0.50;0.50;;;10.50;99.90;;;;;;5039122;28;20045;-71
2022/04/27 10:44:14;;;;;;;0.40;0.40;;;10.50;99.90;;;;;;5038240;28;20052;-70
2022/04/27 10:46:43;;;;;;;2.90;0.60;;;10.60;99.90;;;;;;5036503;28;20045;-72
2022/04/27 10:49:28;;;;;;;0.80;0.80;;;10.50;99.90;;;;;;5017944;28;20186;-71
2022/04/27 10:52:07;;;;;;;0.50;0.50;;;10.60;99.90;;;;;;5044122;28;20561;-73
2022/04/27 10:54:37;;;;;;;0.40;0.40;;;10.70;99.90;;;;;;5020725;28;20033;-72
2022/04/27 10:57:15;;;;;;;0.28;0.28;;;10.70;99.90;;;;;;5036992;28;20060;-73
2022/04/27 10:59:48;;;;;;;0.60;0.60;;;10.70;99.90;;;;;;5023053;28;20037;-73
2022/04/27 11:02:33;;;;;;;0.50;0.50;;;10.80;99.90;;;;;;5035860;28;20465;-71
2022/04/27 11:05:03;;;;;;;0.40;0.40;;;10.80;99.90;;;;;;5044022;28;20051;-71
2022/04/27 11:08:01;;;;;;;0.40;0.40;;;10.80;99.90;;;;;;5036479;28;20516;-71
2022/04/27 11:10:27;;;;;;;0.75;0.75;;;10.90;99.90;;;;;;5021634;28;20053;-71
2022/04/27 11:12:56;;;;;;;0.32;0.32;;;11.00;99.90;;;;;;5023276;28;20114;-70
2022/04/27 11:15:24;;;;;;;0.57;0.57;;;11.00;99.90;;;;;;5024420;28;20044;-71
2022/04/27 11:17:59;;;;;;;0.50;0.50;;;11.00;99.90;;;;;;5028842;28;20033;-71
2022/04/27 11:20:38;;;;;;;0.40;0.40;;;11.00;99.90;;;;;;5034150;28;20045;-73
2022/04/27 11:23:08;;;;;;;0.50;0.50;;;11.10;99.90;;;;;;5020890;28;20064;-72
2022/04/27 11:25:42;;;;;;;0.60;0.60;;;11.20;99.90;;;;;;5037683;28;20155;-73
2022/04/27 11:28:09;;;;;;;0.45;0.45;;;11.20;99.90;;;;;;5038782;28;20151;-72
2022/04/27 11:30:35;;;;;;;0.30;0.30;;;11.30;99.90;;;;;;5042266;28;20032;-71
2022/04/27 11:33:01;;;;;;;;;;;11.30;99.90;;;;;;5050250;28;20040;-74
2022/04/27 11:35:49;;;;;;;0.35;0.35;;;11.30;99.90;;;;;;5036382;28;19932;-76
2022/04/27 11:38:32;;;;;;;0.30;0.30;;;11.40;99.90;;;;;;5046507;28;20116;-76
2022/04/27 11:40:57;;;;;;;0.40;0.40;;;11.40;99.90;;;;;;5044291;28;20033;-75
2022/04/27 11:43:24;;;;;;;0.47;0.40;;;11.50;99.90;;;;;;5049366;28;20056;-73
2022/04/27 11:45:50;;;;;;;0.90;0.90;;;11.60;99.90;;;;;;5044606;28;20389;-75
2022/04/27 11:48:18;;;;;;;0.40;0.40;;;11.70;99.90;;;;;;5052256;28;20037;-75
2022/04/27 11:50:44;;;;;;;0.52;0.52;;;11.80;99.90;;;;;;5035446;28;20474;-74
2022/04/27 11:53:14;;;;;;;0.43;0.30;;;11.90;99.90;;;;;;5050291;28;20053;-75
2022/04/27 11:55:43;;;;;;;0.30;0.30;;;12.00;99.90;;;;;;5052077;28;20478;-74
2022/04/27 11:58:09;;;;;;;1.95;1.38;;;12.00;99.90;;;;;;5015723;28;20136;-77
2022/04/27 12:00:35;;;;;;;0.47;0.47;;;11.90;99.90;;;;;;5052251;28;20037;-75
2022/04/27 12:03:06;;;;;;;1.10;0.73;;;11.90;99.90;;;;;;5035242;28;20139;-74
2022/04/27 12:05:39;;;;;;;0.45;0.45;;;11.90;99.90;;;;;;5052049;28;20049;-74
2022/04/27 12:08:10;;;;;;;1.02;0.63;;;11.90;99.90;;;;;;5032113;28;20045;-75
2022/04/27 12:10:43;;;;;;;0.40;0.40;;;12.10;99.90;;;;;;5043565;28;20487;-74
2022/04/27 12:13:10;;;;;;;0.30;0.30;;;12.20;99.90;;;;;;5023086;28;20132;-75
2022/04/27 12:15:39;;;;;;;1.13;0.47;;;12.40;99.90;;;;;;5024750;28;20128;-74
2022/04/27 12:18:05;;;;;;;0.50;0.50;;;12.60;99.90;;;;;;5036643;28;20094;-76
2022/04/27 12:20:39;;;;;;;0.45;0.45;;;12.80;99.90;;;;;;5051320;28;20497;-76
2022/04/27 12:23:09;;;;;;;0.38;0.38;;;13.00;99.90;;;;;;5033145;28;20047;-73
2022/04/27 12:25:53;;;;;;;0.88;0.88;;;13.20;99.90;;;;;;5026846;28;20047;-76
2022/04/27 12:28:53;;;;;;;0.30;0.30;;;13.50;99.90;;;;;;5050447;28;20390;-75
2022/04/27 12:31:20;;;;;;;0.40;0.40;;;13.60;99.90;;;;;;5021559;28;20064;-75
2022/04/27 12:33:51;;;;;;;0.40;0.40;;;13.60;99.90;;;;;;5020593;28;20143;-73
2022/04/27 12:39:23;;;;;;;0.40;0.40;;;13.50;99.90;;;;;;5021760;28;20038;-75
2022/04/27 12:41:50;;;;;;;0.40;0.40;;;13.30;99.90;;;;;;5017256;28;20037;-75
2022/04/27 12:44:28;;;;;;;0.40;0.40;;;13.20;99.80;;;;;;5042306;28;20101;-75
2022/04/27 12:47:04;;;;;;;0.30;0.30;;;13.10;99.90;;;;;;5050819;28;20045;-76
2022/04/27 12:49:42;;;;;;;0.70;0.70;;;13.10;99.90;;;;;;5051045;28;20052;-73
2022/04/27 12:52:23;;;;;;;1.38;0.98;;;13.00;99.90;;;;;;5027903;28;20799;-74
2022/04/27 12:54:53;;;;;;;0.40;0.40;;;13.00;99.90;;;;;;5049392;28;20391;-78
2022/04/27 12:57:18;;;;;;;0.30;0.30;;;12.90;99.90;;;;;;5030194;28;20509;-75
2022/04/27 12:59:59;;;;;;;0.80;0.80;;;12.90;99.90;;;;;;5028943;28;20041;-76
2022/04/27 13:02:25;;;;;;;3.00;0.55;;;12.80;99.90;;;;;;5025200;28;20033;-74
2022/04/27 13:04:52;;;;;;;0.75;0.75;;;12.80;99.90;;;;;;5028682;28;20047;-74
2022/04/27 13:07:18;;;;;;;0.70;0.70;;;12.80;99.90;;;;;;5034573;28;20382;-77
2022/04/27 13:12:30;;;;;;;0.28;0.28;;;12.60;99.00;;;;;;5028363;28;20117;-77
2022/04/27 13:14:57;;;;;;;0.38;0.38;;;12.50;99.80;;;;;;5048296;28;20040;-74
2022/04/27 13:17:22;;;;;;;1.63;0.70;;;12.50;99.90;;;;;;5050464;28;20068;-74
2022/04/27 13:19:48;;;;;;;0.40;0.40;;;12.60;99.90;;;;;;5023495;28;20075;-74
2022/04/27 13:22:15;;;;;;;0.47;0.47;;;12.70;99.50;;;;;;5033297;28;20042;-73
2022/04/27 13:24:41;;;;;;;0.30;0.30;;;12.80;99.20;;;;;;5030110;28;20447;-75
2022/04/27 13:27:07;;;;;;;0.30;0.30;;;12.90;99.00;;;;;;5027210;28;20045;-75